Alderpoint, California
Current Conditions -  °F | °C
As of 4:30 PM on Friday 24 Oct 2014 (Local Time) from KFOT Reporting Station
Clear Clear  
Wind Chill: 66°   Ceiling: Unl
Heat Index: 66°   Visibility: 10mi
Dew Point: 55°   Wind: 18mph
Humidity: 68%   Direction: 150°SSE
Pressure: 29.76"   Gusts: 31mph
Location:  40.18°N, 123.61°W
Report Text: KFOT 242330Z AUTO 15016G27KT 10SM CLR 19/13 A2976 RMK AO1
Loading
Personal Weather Stations






























Interactive Weather Map
Tropical Storm Tracking
New forecast layout! Learn more

10-Day Weather Forecast

Advertisements
Track Severe Weather on mobile